Terminal Aerodrome Forecast
Issued by NWS Atlanta, GA

Home | Current Version | Previous Version | Text Only | Print | Product List | Glossary On
Versions: 1 2 3 4 5 6 7 8 9 10 11 12 13 14 15 16 17
343
FTUS42 KFFC 212328
TAFMCN
TAF
KMCN 212328Z 2200/2224 10004KT P6SM VCSH BKN050
     FM220300 09003KT 5SM -RA BR OVC015
     FM220800 10004KT 3SM -RA BR OVC007
     FM221000 09005KT 2SM -RA BR OVC004
     FM221300 10008KT 5SM -RA BR BKN007
     FM221600 09007KT P6SM OVC025=

USA.gov is the U.S. government's official web portal to all federal, state and local government web resources and services.